Time;durP1;ratioP1;P1;durP2;ratioP2;P2;SDS_P1;SDS_P2;PMS_P1;PMS_P2;Temp;Humidity;BMP_temperature;BMP_pressure;BME280_temperature;BME280_humidity;BME280_pressure;Samples;Min_cycle;Max_cycle;Signal;HPM_P1;HPM_P2
2022/11/27 00:00:19;;;;;;;10.80;7.43;;;3.90;99.90;;;;;;5087285;28;20909;-79
2022/11/27 00:02:48;;;;;;;11.60;8.60;;;3.90;99.90;;;;;;5093785;28;20851;-79
2022/11/27 00:05:14;;;;;;;13.37;7.83;;;3.80;99.90;;;;;;5089223;28;20514;-79
2022/11/27 00:07:41;;;;;;;10.13;8.13;;;3.90;99.90;;;;;;5087132;28;20498;-79
2022/11/27 00:10:09;;;;;;;10.93;9.00;;;4.00;99.90;;;;;;5085051;28;20485;-79
2022/11/27 00:12:36;;;;;;;8.30;7.40;;;4.00;99.90;;;;;;5098778;28;20722;-79
2022/11/27 00:15:04;;;;;;;9.10;7.10;;;4.00;99.90;;;;;;5084587;28;20537;-79
2022/11/27 00:17:31;;;;;;;11.43;8.00;;;3.90;99.90;;;;;;5089609;28;20896;-79
2022/11/27 00:19:59;;;;;;;10.17;7.77;;;3.90;99.90;;;;;;5089699;28;20490;-79
2022/11/27 00:22:26;;;;;;;12.30;9.50;;;3.90;99.90;;;;;;5094633;28;20498;-79
2022/11/27 00:24:53;;;;;;;10.13;7.87;;;3.90;99.90;;;;;;5095644;28;20992;-79
2022/11/27 00:27:20;;;;;;;14.80;8.57;;;4.00;99.90;;;;;;5093485;28;20860;-79
2022/11/27 00:29:47;;;;;;;11.07;7.60;;;4.20;99.90;;;;;;5092945;28;20489;-78
2022/11/27 00:32:14;;;;;;;10.37;6.80;;;4.20;99.90;;;;;;5092208;28;21018;-79
2022/11/27 00:34:41;;;;;;;12.13;8.73;;;4.30;99.90;;;;;;5094643;28;20917;-79
2022/11/27 00:37:11;;;;;;;12.93;8.23;;;4.30;99.90;;;;;;5102194;28;20476;-79
2022/11/27 00:39:37;;;;;;;13.07;8.43;;;4.30;99.90;;;;;;5093297;28;20903;-79
2022/11/27 00:42:04;;;;;;;6.70;6.00;;;4.30;99.90;;;;;;5093935;28;20469;-79
2022/11/27 00:44:31;;;;;;;14.60;7.27;;;4.30;99.90;;;;;;5091568;28;21016;-78
2022/11/27 00:46:58;;;;;;;5.73;5.23;;;4.30;99.90;;;;;;5092748;28;20474;-79
2022/11/27 00:49:25;;;;;;;6.43;5.17;;;4.10;99.90;;;;;;5087693;28;20516;-79
2022/11/27 00:51:52;;;;;;;6.20;4.83;;;4.20;99.90;;;;;;5086432;28;20545;-79
2022/11/27 00:54:21;;;;;;;9.00;4.87;;;4.10;99.90;;;;;;5084790;28;20949;-76
2022/11/27 00:56:47;;;;;;;5.87;4.30;;;4.10;99.90;;;;;;5101730;28;20483;-76
2022/11/27 00:59:14;;;;;;;5.07;3.77;;;4.10;99.90;;;;;;5096974;28;20801;-76
2022/11/27 01:01:43;;;;;;;5.40;4.90;;;4.00;99.90;;;;;;5094007;28;20494;-76
2022/11/27 01:04:13;;;;;;;4.70;4.00;;;4.00;99.90;;;;;;5089649;28;20523;-77
2022/11/27 01:06:40;;;;;;;4.33;3.90;;;4.00;99.90;;;;;;5104254;28;20871;-76
2022/11/27 01:09:07;;;;;;;7.17;4.30;;;4.10;99.90;;;;;;5104621;28;20541;-76
2022/11/27 01:11:36;;;;;;;5.03;4.53;;;4.00;99.90;;;;;;5103356;28;20470;-76
2022/11/27 01:14:06;;;;;;;4.83;3.10;;;4.00;99.90;;;;;;5098763;28;20544;-76
2022/11/27 01:16:34;;;;;;;7.37;4.17;;;4.00;99.90;;;;;;5089304;28;20555;-76
2022/11/27 01:19:02;;;;;;;4.87;3.97;;;4.00;99.90;;;;;;5098480;28;20968;-76
2022/11/27 01:21:31;;;;;;;4.97;3.37;;;4.00;99.90;;;;;;5094170;28;20656;-76
2022/11/27 01:23:59;;;;;;;8.00;4.27;;;3.90;99.90;;;;;;5090524;28;20466;-76
2022/11/27 01:26:26;;;;;;;4.10;3.53;;;3.90;99.90;;;;;;5097118;28;20573;-76
2022/11/27 01:28:56;;;;;;;7.70;5.50;;;3.90;99.90;;;;;;5103543;28;21045;-76
2022/11/27 01:31:25;;;;;;;4.47;3.43;;;3.90;99.90;;;;;;5090944;28;20511;-76
2022/11/27 01:33:54;;;;;;;6.80;3.87;;;3.80;99.90;;;;;;5088705;28;20545;-76
2022/11/27 01:36:23;;;;;;;8.80;4.93;;;3.80;99.90;;;;;;5087939;28;20606;-76
2022/11/27 01:38:50;;;;;;;6.23;3.60;;;3.70;99.90;;;;;;5094617;28;20470;-76
2022/11/27 01:41:19;;;;;;;6.33;3.80;;;3.70;99.90;;;;;;5089940;28;20914;-76
2022/11/27 01:43:49;;;;;;;6.43;4.30;;;3.70;99.90;;;;;;5095700;28;20751;-76
2022/11/27 01:46:29;;;;;;;5.40;3.90;;;3.70;99.90;;;;;;5093834;28;20875;-76
2022/11/27 01:49:03;;;;;;;7.10;3.53;;;3.60;99.90;;;;;;5096543;28;20542;-76
2022/11/27 01:51:30;;;;;;;5.23;4.73;;;3.60;99.90;;;;;;5085607;28;20548;-76
2022/11/27 01:53:58;;;;;;;4.20;3.83;;;3.50;99.90;;;;;;5085862;28;20494;-76
2022/11/27 01:56:27;;;;;;;6.13;4.20;;;3.50;99.90;;;;;;5097604;28;20481;-76
2022/11/27 01:58:55;;;;;;;4.00;3.30;;;3.50;99.90;;;;;;5104349;28;20515;-76
2022/11/27 02:01:24;;;;;;;7.60;4.20;;;3.40;99.90;;;;;;5091845;28;20575;-76
2022/11/27 02:03:52;;;;;;;7.87;4.70;;;3.30;99.90;;;;;;5089051;28;20470;-76
2022/11/27 02:06:19;;;;;;;5.90;4.33;;;3.30;99.90;;;;;;5091725;28;20942;-76
2022/11/27 02:08:46;;;;;;;4.90;4.00;;;3.20;99.90;;;;;;5097968;28;20494;-76
2022/11/27 02:11:18;;;;;;;6.53;5.07;;;3.20;99.90;;;;;;5093362;28;20545;-76
2022/11/27 02:13:50;;;;;;;5.10;4.60;;;3.30;99.90;;;;;;5099825;28;20982;-76
2022/11/27 02:16:24;;;;;;;7.83;4.70;;;3.40;99.90;;;;;;5096179;28;20537;-76
2022/11/27 02:18:59;;;;;;;5.63;4.53;;;3.40;99.90;;;;;;5094957;28;20493;-76
2022/11/27 02:21:34;;;;;;;8.43;4.90;;;3.40;99.90;;;;;;5091002;28;20493;-76
2022/11/27 02:24:24;;;;;;;10.93;6.73;;;3.40;99.90;;;;;;5092169;28;20808;-76
2022/11/27 02:27:14;;;;;;;8.00;5.90;;;3.40;99.90;;;;;;5088816;28;20514;-76
2022/11/27 02:29:47;;;;;;;13.37;8.13;;;3.40;99.90;;;;;;5093095;28;20593;-76
2022/11/27 02:32:21;;;;;;;9.13;5.60;;;3.20;99.90;;;;;;5087558;28;20893;-76
2022/11/27 02:34:53;;;;;;;16.07;9.37;;;3.10;99.90;;;;;;5096394;28;20459;-76
2022/11/27 02:37:25;;;;;;;11.63;7.90;;;3.00;99.90;;;;;;5099433;28;20493;-76
2022/11/27 02:39:59;;;;;;;6.97;5.93;;;3.00;99.90;;;;;;5091203;28;20490;-76
2022/11/27 02:42:30;;;;;;;12.40;7.90;;;3.00;99.90;;;;;;5089497;28;20479;-76
2022/11/27 02:45:02;;;;;;;11.13;6.67;;;2.80;99.90;;;;;;5094974;28;20471;-76
2022/11/27 02:47:30;;;;;;;9.33;6.63;;;2.60;99.90;;;;;;5085592;28;20932;-76
2022/11/27 02:49:58;;;;;;;9.70;5.77;;;2.50;99.90;;;;;;5096731;28;20507;-76
2022/11/27 02:52:28;;;;;;;8.90;5.00;;;2.40;99.90;;;;;;5095432;28;20469;-76
2022/11/27 02:55:00;;;;;;;9.60;7.43;;;2.30;99.90;;;;;;5096596;28;20545;-76
2022/11/27 02:57:28;;;;;;;8.33;7.40;;;2.20;99.90;;;;;;5102373;28;20849;-76
2022/11/27 02:59:59;;;;;;;9.70;5.63;;;2.20;99.90;;;;;;5089302;28;20500;-76
2022/11/27 03:02:31;;;;;;;11.87;6.77;;;2.20;99.90;;;;;;5096197;28;20474;-76
2022/11/27 03:05:00;;;;;;;9.60;6.40;;;2.10;99.90;;;;;;5090475;28;20499;-76
2022/11/27 03:07:36;;;;;;;8.73;6.47;;;2.10;99.90;;;;;;5099089;28;20475;-76
2022/11/27 03:10:09;;;;;;;9.17;6.47;;;2.00;99.90;;;;;;5100909;28;20489;-76
2022/11/27 03:12:36;;;;;;;9.43;7.67;;;2.00;99.90;;;;;;5104087;28;20610;-76
2022/11/27 03:15:06;;;;;;;11.03;8.90;;;1.90;99.90;;;;;;5104571;28;20550;-76
2022/11/27 03:17:42;;;;;;;9.70;6.10;;;2.00;99.90;;;;;;5090264;28;20550;-76
2022/11/27 03:20:15;;;;;;;7.80;5.50;;;2.00;99.90;;;;;;5098149;28;20465;-76
2022/11/27 03:22:42;;;;;;;5.80;4.30;;;1.80;99.90;;;;;;5095913;28;20552;-76
2022/11/27 03:25:09;;;;;;;7.93;5.60;;;1.80;99.90;;;;;;5096729;28;20869;-76
2022/11/27 03:27:40;;;;;;;7.00;4.77;;;1.70;99.90;;;;;;5088007;28;20915;-76
2022/11/27 03:30:11;;;;;;;8.20;5.47;;;1.80;99.90;;;;;;5093059;28;20806;-76
2022/11/27 03:32:38;;;;;;;7.90;5.80;;;1.70;99.90;;;;;;5093831;28;20580;-76
2022/11/27 03:35:09;;;;;;;7.40;5.70;;;1.80;99.90;;;;;;5091209;28;20490;-76
2022/11/27 03:37:36;;;;;;;7.93;5.90;;;1.80;99.90;;;;;;5090352;28;20459;-76
2022/11/27 03:40:04;;;;;;;13.00;7.13;;;1.80;99.90;;;;;;5095313;28;20490;-76
2022/11/27 03:42:40;;;;;;;8.77;5.93;;;1.90;99.90;;;;;;5097203;28;20519;-76
2022/11/27 03:45:17;;;;;;;11.53;10.50;;;2.00;99.90;;;;;;5086903;28;20559;-76
2022/11/27 03:47:56;;;;;;;39.13;15.83;;;2.20;99.90;;;;;;5104619;28;20515;-76
2022/11/27 03:50:35;;;;;;;32.03;14.87;;;2.40;99.90;;;;;;5085827;28;20537;-76
2022/11/27 03:53:10;;;;;;;15.67;9.10;;;2.50;99.90;;;;;;5105243;28;20489;-76
2022/11/27 03:55:48;;;;;;;17.97;10.20;;;2.60;99.90;;;;;;5101506;28;20446;-76
2022/11/27 03:58:19;;;;;;;15.13;9.33;;;2.50;99.90;;;;;;5103367;28;20752;-76
2022/11/27 04:00:49;;;;;;;10.33;6.60;;;2.60;99.90;;;;;;5098549;28;20880;-76
2022/11/27 04:03:24;;;;;;;8.77;6.30;;;2.70;99.90;;;;;;5095143;28;20585;-76
2022/11/27 04:05:51;;;;;;;7.00;5.13;;;2.60;99.90;;;;;;5096866;28;20603;-76
2022/11/27 04:08:18;;;;;;;8.17;7.00;;;2.60;99.90;;;;;;5098325;28;21043;-76
2022/11/27 04:10:45;;;;;;;10.13;6.00;;;2.60;99.90;;;;;;5106282;28;20496;-76
2022/11/27 04:13:12;;;;;;;9.00;4.97;;;2.60;99.90;;;;;;5092985;28;20509;-76
2022/11/27 04:15:39;;;;;;;5.87;5.27;;;2.50;99.90;;;;;;5097305;28;20528;-76
2022/11/27 04:18:08;;;;;;;7.93;5.27;;;2.40;99.90;;;;;;5094984;28;21193;-76
2022/11/27 04:20:35;;;;;;;8.17;5.70;;;2.50;99.90;;;;;;5097095;28;20834;-76
2022/11/27 04:23:01;;;;;;;10.03;4.83;;;2.50;99.90;;;;;;5093850;28;20580;-76
2022/11/27 04:25:28;;;;;;;9.53;6.03;;;2.60;99.90;;;;;;5093984;28;20544;-76
2022/11/27 04:27:55;;;;;;;13.87;6.47;;;2.70;99.90;;;;;;5098860;28;20487;-76
2022/11/27 04:30:23;;;;;;;6.37;5.00;;;2.80;99.90;;;;;;5093845;28;20549;-76
2022/11/27 04:32:50;;;;;;;6.17;5.67;;;2.90;99.90;;;;;;5090322;28;20491;-76
2022/11/27 04:35:18;;;;;;;9.67;7.47;;;2.80;99.90;;;;;;5090036;28;20495;-76
2022/11/27 04:37:45;;;;;;;7.97;5.83;;;2.60;99.90;;;;;;5087708;28;20954;-76
2022/11/27 04:40:13;;;;;;;8.43;6.13;;;2.50;99.90;;;;;;5099133;28;20493;-76
2022/11/27 04:42:40;;;;;;;10.03;7.57;;;2.50;99.90;;;;;;5106899;27;20886;-76
2022/11/27 04:45:08;;;;;;;14.73;9.13;;;2.60;99.90;;;;;;5092423;28;20519;-76
2022/11/27 04:47:35;;;;;;;15.20;9.30;;;2.60;99.90;;;;;;5100084;28;20474;-76
2022/11/27 04:50:02;;;;;;;9.60;6.63;;;2.70;99.90;;;;;;5091125;28;20985;-76
2022/11/27 04:52:30;;;;;;;17.50;13.80;;;2.80;99.90;;;;;;5094868;28;20492;-76
2022/11/27 04:54:57;;;;;;;9.83;8.83;;;2.90;99.90;;;;;;5105020;28;20884;-76
2022/11/27 04:57:24;;;;;;;15.27;8.20;;;2.80;99.90;;;;;;5104520;28;20485;-76
2022/11/27 04:59:51;;;;;;;14.07;7.20;;;2.90;99.90;;;;;;5102695;28;20501;-76
2022/11/27 05:02:18;;;;;;;21.90;8.93;;;2.90;99.90;;;;;;5091996;28;20485;-76
2022/11/27 05:04:45;;;;;;;13.30;5.67;;;2.90;99.90;;;;;;5095412;28;20479;-76
2022/11/27 05:07:12;;;;;;;15.37;7.70;;;2.90;99.90;;;;;;5095877;28;20494;-76
2022/11/27 05:09:40;;;;;;;16.50;6.50;;;2.90;99.90;;;;;;5104395;28;20824;-76
2022/11/27 05:12:07;;;;;;;15.80;6.90;;;2.90;99.90;;;;;;5091644;28;20513;-76
2022/11/27 05:14:34;;;;;;;11.47;5.60;;;3.00;99.90;;;;;;5096592;28;20529;-76
2022/11/27 05:17:01;;;;;;;7.70;5.80;;;3.00;99.90;;;;;;5098549;28;20486;-76
2022/11/27 05:19:30;;;;;;;16.63;7.47;;;2.80;99.90;;;;;;5102617;28;20950;-76
2022/11/27 05:21:58;;;;;;;11.20;6.47;;;2.80;99.90;;;;;;5091479;28;21074;-76
2022/11/27 05:24:27;;;;;;;14.87;8.87;;;2.90;99.90;;;;;;5088709;28;20486;-76
2022/11/27 05:26:56;;;;;;;7.90;5.13;;;3.00;99.90;;;;;;5089572;28;20605;-76
2022/11/27 05:29:24;;;;;;;9.00;5.90;;;3.00;99.90;;;;;;5087494;28;20536;-76
2022/11/27 05:31:51;;;;;;;18.70;9.33;;;2.80;99.90;;;;;;5090397;28;20481;-76
2022/11/27 05:34:18;;;;;;;10.80;7.20;;;2.80;99.90;;;;;;5091100;28;20537;-76
2022/11/27 05:36:45;;;;;;;9.67;6.53;;;2.80;99.90;;;;;;5084634;28;21014;-76
2022/11/27 05:39:12;;;;;;;10.47;6.17;;;2.90;99.90;;;;;;5098113;28;20540;-76
2022/11/27 05:41:41;;;;;;;7.90;5.50;;;3.00;99.90;;;;;;5093569;28;20537;-76
2022/11/27 05:44:12;;;;;;;11.80;7.40;;;3.00;99.90;;;;;;5098672;28;20454;-76
2022/11/27 05:46:39;;;;;;;11.60;7.10;;;3.00;99.90;;;;;;5091084;28;20495;-76
2022/11/27 05:49:06;;;;;;;19.50;6.73;;;3.00;99.90;;;;;;5097589;28;20498;-76
2022/11/27 05:51:33;;;;;;;9.30;5.17;;;3.00;99.90;;;;;;5096561;28;20538;-76
2022/11/27 05:54:00;;;;;;;10.87;6.90;;;3.00;99.90;;;;;;5101515;28;20497;-77
2022/11/27 05:56:27;;;;;;;24.43;8.80;;;2.90;99.90;;;;;;5100943;28;20539;-76
2022/11/27 05:58:54;;;;;;;22.03;8.33;;;3.00;99.90;;;;;;5094968;28;20504;-76
2022/11/27 06:01:22;;;;;;;18.20;8.80;;;3.00;99.90;;;;;;5098978;28;20494;-76
2022/11/27 06:03:49;;;;;;;18.93;8.27;;;2.90;99.90;;;;;;5097716;28;20462;-76
2022/11/27 06:06:19;;;;;;;25.33;11.80;;;2.90;99.90;;;;;;5089495;28;20581;-76
2022/11/27 06:08:46;;;;;;;28.33;11.20;;;3.00;99.90;;;;;;5094485;28;20516;-76
2022/11/27 06:11:15;;;;;;;35.20;12.93;;;3.00;99.90;;;;;;5092907;28;20491;-76
2022/11/27 06:13:43;;;;;;;15.77;9.70;;;3.10;99.90;;;;;;5082223;28;20938;-76
2022/11/27 06:16:13;;;;;;;42.33;13.77;;;3.20;99.90;;;;;;5097401;28;20486;-76
2022/11/27 06:18:41;;;;;;;76.17;23.97;;;3.20;99.90;;;;;;5084977;28;20524;-76
2022/11/27 06:21:10;;;;;;;75.53;21.87;;;3.30;99.90;;;;;;5089142;28;20746;-76
2022/11/27 06:23:37;;;;;;;22.90;13.47;;;3.10;99.90;;;;;;5093466;28;20493;-77
2022/11/27 06:26:12;;;;;;;90.97;20.70;;;3.20;99.90;;;;;;5089387;28;20907;-76
2022/11/27 06:28:39;;;;;;;103.80;20.57;;;3.10;99.90;;;;;;5088787;28;20888;-76
2022/11/27 06:31:08;;;;;;;85.17;36.70;;;3.10;99.90;;;;;;5093700;28;20457;-76
2022/11/27 06:33:35;;;;;;;153.07;45.70;;;3.10;99.90;;;;;;5094756;28;20501;-76
2022/11/27 06:36:05;;;;;;;148.87;31.07;;;3.10;99.90;;;;;;5091016;28;20494;-77
2022/11/27 06:38:32;;;;;;;50.53;22.33;;;3.10;99.90;;;;;;5083616;28;20490;-77
2022/11/27 06:41:03;;;;;;;44.70;24.13;;;3.20;99.90;;;;;;5090822;28;21089;-76
2022/11/27 06:43:30;;;;;;;33.43;15.00;;;3.20;99.90;;;;;;5096393;28;20718;-77
2022/11/27 06:45:57;;;;;;;71.53;20.23;;;3.20;99.90;;;;;;5094666;28;20949;-77
2022/11/27 06:48:24;;;;;;;47.17;15.53;;;3.30;99.90;;;;;;5094372;28;20564;-77
2022/11/27 06:50:51;;;;;;;51.47;17.60;;;3.30;99.90;;;;;;5101581;28;20477;-76
2022/11/27 06:53:20;;;;;;;50.93;20.20;;;3.40;99.90;;;;;;5087428;28;20803;-76
2022/11/27 06:55:46;;;;;;;89.23;26.33;;;3.40;99.90;;;;;;5085782;28;20563;-78
2022/11/27 06:58:13;;;;;;;50.53;17.03;;;3.50;99.90;;;;;;5091624;28;20879;-78
2022/11/27 07:00:40;;;;;;;50.83;19.00;;;3.50;99.90;;;;;;5092303;28;20567;-78
2022/11/27 07:03:07;;;;;;;33.93;16.60;;;3.60;99.90;;;;;;5095168;28;22472;-78
2022/11/27 07:05:35;;;;;;;33.27;14.93;;;3.60;99.90;;;;;;5095218;28;20482;-78
2022/11/27 07:08:02;;;;;;;39.53;15.90;;;3.60;99.90;;;;;;5095607;28;20514;-78
2022/11/27 07:10:33;;;;;;;28.50;18.03;;;3.50;99.90;;;;;;5084636;28;20486;-78
2022/11/27 07:13:00;;;;;;;42.13;17.77;;;3.50;99.90;;;;;;5091696;28;20508;-78
2022/11/27 07:15:27;;;;;;;36.67;15.70;;;3.50;99.90;;;;;;5094744;27;20580;-78
2022/11/27 07:17:54;;;;;;;32.87;16.30;;;3.60;99.90;;;;;;5096617;28;21032;-78
2022/11/27 07:20:21;;;;;;;39.53;17.23;;;3.60;99.90;;;;;;5093972;28;20515;-79
2022/11/27 07:22:48;;;;;;;23.27;14.80;;;3.70;99.90;;;;;;5101873;28;20481;-78
2022/11/27 07:25:15;;;;;;;28.00;14.77;;;3.70;99.90;;;;;;5095195;28;20549;-78
2022/11/27 07:27:43;;;;;;;162.47;44.53;;;3.70;99.90;;;;;;5085578;27;21236;-78
2022/11/27 07:30:11;;;;;;;144.30;41.23;;;3.80;99.90;;;;;;5087019;28;20557;-78
2022/11/27 07:32:38;;;;;;;131.13;28.20;;;3.80;99.90;;;;;;5092804;27;20490;-77
2022/11/27 07:35:06;;;;;;;88.93;25.10;;;3.70;99.90;;;;;;5089996;28;20553;-78
2022/11/27 07:37:33;;;;;;;126.90;28.60;;;3.70;99.90;;;;;;5087268;28;20542;-78
2022/11/27 07:40:00;;;;;;;92.13;24.20;;;3.90;99.90;;;;;;5086572;28;21005;-78
2022/11/27 07:42:29;;;;;;;35.70;17.43;;;3.90;99.90;;;;;;5084787;28;20462;-78
2022/11/27 07:44:57;;;;;;;35.47;17.87;;;3.90;99.90;;;;;;5090122;28;20466;-79
2022/11/27 07:47:24;;;;;;;38.40;15.87;;;3.90;99.90;;;;;;5083241;28;20920;-78
2022/11/27 07:49:51;;;;;;;35.30;17.23;;;3.80;99.90;;;;;;5087706;28;20539;-79
2022/11/27 07:52:18;;;;;;;35.70;17.53;;;4.00;99.90;;;;;;5095889;28;20849;-78
2022/11/27 07:54:44;;;;;;;34.87;18.20;;;4.00;99.90;;;;;;5088547;28;20548;-78
2022/11/27 07:57:11;;;;;;;40.70;17.80;;;3.90;99.90;;;;;;5088323;28;20554;-78
2022/11/27 07:59:38;;;;;;;45.53;17.73;;;3.90;99.90;;;;;;5084401;28;20538;-78
2022/11/27 08:02:06;;;;;;;29.87;16.67;;;3.80;99.90;;;;;;5088365;28;20552;-78
2022/11/27 08:04:33;;;;;;;36.43;17.90;;;3.90;99.90;;;;;;5083659;28;20490;-79
2022/11/27 08:07:00;;;;;;;66.37;20.13;;;4.00;99.90;;;;;;5093030;28;20521;-78
2022/11/27 08:09:29;;;;;;;38.10;17.77;;;4.00;99.90;;;;;;5088816;28;20869;-78
2022/11/27 08:11:56;;;;;;;42.37;18.10;;;3.90;99.90;;;;;;5085498;28;20455;-78
2022/11/27 08:14:23;;;;;;;26.80;15.30;;;4.00;99.90;;;;;;5087841;28;20902;-78
2022/11/27 08:16:50;;;;;;;29.67;15.20;;;4.00;99.90;;;;;;5090526;28;20569;-78
2022/11/27 08:19:18;;;;;;;34.17;16.40;;;4.10;99.90;;;;;;5091751;28;20493;-78
2022/11/27 08:21:45;;;;;;;32.57;15.23;;;4.00;99.90;;;;;;5091447;28;20537;-79
2022/11/27 08:24:12;;;;;;;25.27;15.10;;;4.00;99.90;;;;;;5098374;28;20468;-79
2022/11/27 08:26:39;;;;;;;21.70;14.80;;;4.00;99.90;;;;;;5091479;28;20573;-79
2022/11/27 08:29:06;;;;;;;22.17;15.43;;;3.90;99.90;;;;;;5093724;28;20533;-78
2022/11/27 08:31:34;;;;;;;22.23;12.97;;;3.90;99.90;;;;;;5100238;27;20450;-79
2022/11/27 08:34:01;;;;;;;18.87;12.67;;;3.90;99.90;;;;;;5086436;28;20740;-79
2022/11/27 08:36:29;;;;;;;18.90;12.73;;;4.00;99.90;;;;;;5086452;28;20466;-79
2022/11/27 08:38:57;;;;;;;21.60;14.30;;;4.10;99.90;;;;;;5096911;28;20537;-79
2022/11/27 08:41:24;;;;;;;21.93;13.80;;;4.20;99.90;;;;;;5090033;28;20471;-79
2022/11/27 08:43:51;;;;;;;28.10;15.00;;;4.10;99.90;;;;;;5097201;28;20525;-79
2022/11/27 08:46:18;;;;;;;20.83;13.93;;;4.10;99.90;;;;;;5098403;28;20477;-79
2022/11/27 08:48:44;;;;;;;21.17;13.70;;;4.10;99.90;;;;;;5100258;28;20576;-79
2022/11/27 08:51:14;;;;;;;20.80;13.33;;;4.10;99.90;;;;;;5100263;28;20490;-79
2022/11/27 08:53:44;;;;;;;26.00;15.80;;;4.20;99.90;;;;;;5104147;28;20518;-78
2022/11/27 08:56:17;;;;;;;22.90;15.03;;;4.30;99.90;;;;;;5100912;28;20466;-82
2022/11/27 08:58:44;;;;;;;25.63;15.60;;;4.40;99.90;;;;;;5088422;28;21467;-80
2022/11/27 09:01:14;;;;;;;25.47;15.27;;;4.40;99.90;;;;;;5091423;28;20557;-77
2022/11/27 09:03:40;;;;;;;31.23;19.10;;;4.30;99.90;;;;;;5089900;28;20709;-77
2022/11/27 09:06:09;;;;;;;24.40;15.80;;;4.30;99.90;;;;;;5094180;28;20493;-77
2022/11/27 09:08:36;;;;;;;21.80;14.70;;;4.30;99.90;;;;;;5084862;28;20511;-78
2022/11/27 09:11:05;;;;;;;19.83;13.77;;;4.40;99.90;;;;;;5088837;28;20570;-78
2022/11/27 09:13:32;;;;;;;27.10;16.83;;;4.30;99.90;;;;;;5085760;28;20549;-78
2022/11/27 09:15:59;;;;;;;29.40;14.43;;;4.30;99.90;;;;;;5084934;28;20459;-78
2022/11/27 09:18:26;;;;;;;33.03;16.70;;;4.30;99.90;;;;;;5084673;28;20486;-78
2022/11/27 09:20:58;;;;;;;28.03;17.80;;;4.40;99.90;;;;;;5086435;28;20548;-78
2022/11/27 09:23:25;;;;;;;27.60;16.80;;;4.50;99.90;;;;;;5089777;28;20547;-78
2022/11/27 09:25:52;;;;;;;32.53;22.53;;;4.50;99.90;;;;;;5088950;28;20455;-78
2022/11/27 09:28:20;;;;;;;41.47;27.80;;;4.40;99.90;;;;;;5083365;28;20578;-78
2022/11/27 09:30:47;;;;;;;23.67;15.60;;;4.40;99.90;;;;;;5087821;28;20486;-78
2022/11/27 09:33:14;;;;;;;25.53;16.53;;;4.40;99.90;;;;;;5088385;28;20500;-78
2022/11/27 09:35:41;;;;;;;25.07;15.80;;;4.40;99.90;;;;;;5086610;28;20546;-78
2022/11/27 09:38:08;;;;;;;21.33;13.63;;;4.60;99.90;;;;;;5102471;27;20449;-78
2022/11/27 09:40:36;;;;;;;26.23;13.90;;;4.70;99.90;;;;;;5093424;28;20895;-78
2022/11/27 09:43:08;;;;;;;20.23;14.37;;;4.60;99.90;;;;;;5089604;28;20470;-78
2022/11/27 09:45:45;;;;;;;17.80;11.63;;;4.70;99.90;;;;;;5097428;27;20801;-78
2022/11/27 09:48:15;;;;;;;17.20;12.10;;;4.70;99.90;;;;;;5099651;28;20581;-78
2022/11/27 09:50:49;;;;;;;24.10;13.67;;;4.70;99.90;;;;;;5084597;28;20489;-78
2022/11/27 09:53:25;;;;;;;12.93;9.60;;;4.80;99.90;;;;;;5098452;28;20967;-78
2022/11/27 09:55:54;;;;;;;17.60;11.73;;;4.90;99.90;;;;;;5092022;28;20490;-78
2022/11/27 09:58:33;;;;;;;17.80;12.20;;;5.00;99.90;;;;;;5092593;28;20545;-78
2022/11/27 10:01:01;;;;;;;16.87;11.13;;;5.00;99.90;;;;;;5084247;28;20601;-78
2022/11/27 10:03:28;;;;;;;21.00;10.70;;;5.10;99.90;;;;;;5082368;28;20546;-78
2022/11/27 10:06:06;;;;;;;11.87;9.60;;;5.20;99.90;;;;;;5084480;28;20512;-78
2022/11/27 10:08:42;;;;;;;17.53;10.53;;;5.20;99.90;;;;;;5080536;28;20849;-78
2022/11/27 10:11:19;;;;;;;15.93;9.53;;;5.20;99.90;;;;;;5079223;28;21215;-78
2022/11/27 10:14:04;;;;;;;14.63;10.80;;;5.50;99.90;;;;;;5085266;28;20538;-78
2022/11/27 10:16:38;;;;;;;13.37;8.70;;;5.30;99.90;;;;;;5087691;27;20465;-78
2022/11/27 10:19:16;;;;;;;10.40;8.00;;;5.30;99.90;;;;;;5084635;28;20538;-78
2022/11/27 10:21:49;;;;;;;10.03;8.27;;;5.60;99.90;;;;;;5085176;28;21005;-78
2022/11/27 10:24:23;;;;;;;10.10;6.73;;;5.40;99.90;;;;;;5084913;28;20584;-78
2022/11/27 10:26:53;;;;;;;9.30;5.97;;;5.40;99.90;;;;;;5085278;28;20552;-78
2022/11/27 10:29:34;;;;;;;7.40;6.30;;;5.40;99.90;;;;;;5083079;28;21125;-79
2022/11/27 10:32:07;;;;;;;11.20;7.77;;;5.50;99.90;;;;;;5083340;28;20558;-79
2022/11/27 10:34:38;;;;;;;11.20;8.20;;;5.50;99.90;;;;;;5080646;28;20576;-79
2022/11/27 10:37:12;;;;;;;12.17;8.50;;;5.60;99.90;;;;;;5082972;28;20482;-79
2022/11/27 10:39:44;;;;;;;7.87;6.37;;;5.70;99.90;;;;;;5082472;28;20486;-79
2022/11/27 10:42:16;;;;;;;7.77;5.27;;;5.70;99.90;;;;;;5085871;28;20551;-79
2022/11/27 10:44:49;;;;;;;8.00;5.73;;;5.80;99.90;;;;;;5090377;28;20599;-79
2022/11/27 10:47:18;;;;;;;6.93;5.07;;;5.90;99.90;;;;;;5093872;28;20533;-79
2022/11/27 10:49:47;;;;;;;7.27;4.83;;;6.00;99.90;;;;;;5090668;28;20930;-79
2022/11/27 10:52:17;;;;;;;9.93;7.07;;;5.90;99.90;;;;;;5087653;28;20562;-79
2022/11/27 10:54:49;;;;;;;11.83;8.53;;;6.00;99.90;;;;;;5090417;28;20478;-79
2022/11/27 10:57:51;;;;;;;11.80;7.60;;;5.90;99.90;;;;;;5088996;28;20486;-79
2022/11/27 11:00:22;;;;;;;8.90;7.63;;;5.90;99.90;;;;;;5081958;28;20563;-79
2022/11/27 11:03:00;;;;;;;10.10;7.20;;;6.00;99.90;;;;;;5087903;28;20455;-79
2022/11/27 11:05:29;;;;;;;8.13;5.17;;;5.80;99.90;;;;;;5085073;28;20498;-79
2022/11/27 11:07:58;;;;;;;10.53;7.43;;;5.90;99.90;;;;;;5084537;28;20888;-78
2022/11/27 11:10:29;;;;;;;12.20;7.80;;;5.90;99.90;;;;;;5086816;28;20658;-78
2022/11/27 11:13:13;;;;;;;16.77;8.03;;;6.10;99.90;;;;;;5084904;28;20494;-78
2022/11/27 11:15:50;;;;;;;11.80;7.70;;;6.10;99.90;;;;;;5084828;28;20457;-79
2022/11/27 11:18:20;;;;;;;12.70;9.37;;;6.60;99.90;;;;;;5087054;28;20493;-78
2022/11/27 11:20:49;;;;;;;10.97;7.00;;;6.50;99.90;;;;;;5081227;28;20814;-79
2022/11/27 11:23:22;;;;;;;12.47;8.50;;;6.50;99.90;;;;;;5083926;28;20549;-79
2022/11/27 11:25:51;;;;;;;11.33;7.00;;;6.70;99.90;;;;;;5079181;28;20976;-78
2022/11/27 11:28:19;;;;;;;15.50;6.90;;;6.50;99.90;;;;;;5086496;28;20601;-79
2022/11/27 11:30:59;;;;;;;11.03;5.60;;;6.80;99.90;;;;;;5081803;28;20553;-79
2022/11/27 11:33:29;;;;;;;9.33;6.80;;;6.70;99.90;;;;;;5095587;28;20554;-79
2022/11/27 11:36:01;;;;;;;8.60;6.63;;;6.90;99.90;;;;;;5088401;28;20580;-79
2022/11/27 11:38:31;;;;;;;12.20;7.03;;;7.10;99.90;;;;;;5088613;28;20883;-79
2022/11/27 11:41:01;;;;;;;10.73;8.07;;;7.00;99.90;;;;;;5091074;28;20954;-79
2022/11/27 11:43:31;;;;;;;9.60;6.23;;;6.80;99.90;;;;;;5089803;28;20469;-79
2022/11/27 11:46:07;;;;;;;8.00;5.83;;;7.00;99.90;;;;;;5087089;28;20497;-79
2022/11/27 11:48:37;;;;;;;9.90;6.10;;;7.00;99.90;;;;;;5088707;28;20489;-79
2022/11/27 11:51:11;;;;;;;10.37;7.03;;;6.80;99.90;;;;;;5083930;28;20555;-79
2022/11/27 11:53:41;;;;;;;9.00;6.00;;;6.80;99.90;;;;;;5096454;28;20464;-79
2022/11/27 11:56:26;;;;;;;8.83;6.40;;;6.70;99.90;;;;;;5098224;28;20868;-79
2022/11/27 11:58:57;;;;;;;12.07;6.33;;;6.60;99.90;;;;;;5091306;28;20478;-79
2022/11/27 12:01:40;;;;;;;9.30;7.03;;;6.50;99.90;;;;;;5084855;28;20650;-79
2022/11/27 12:04:23;;;;;;;9.40;7.23;;;6.60;99.90;;;;;;5087802;28;20856;-79
2022/11/27 12:06:59;;;;;;;8.40;5.73;;;6.80;99.90;;;;;;5087110;28;20545;-79
2022/11/27 12:09:45;;;;;;;8.23;6.30;;;6.60;99.90;;;;;;5083180;28;20579;-79
2022/11/27 12:12:21;;;;;;;8.20;5.90;;;6.40;99.90;;;;;;5087881;28;20568;-78
2022/11/27 12:14:52;;;;;;;8.77;6.00;;;6.70;99.90;;;;;;5096068;28;20530;-79
2022/11/27 12:17:42;;;;;;;9.80;6.27;;;6.80;99.90;;;;;;5096286;27;20931;-79
2022/11/27 12:20:20;;;;;;;9.57;6.37;;;6.50;99.90;;;;;;5090478;28;20477;-78
2022/11/27 12:23:22;;;;;;;8.97;6.43;;;6.60;99.90;;;;;;5093033;28;20461;-79
2022/11/27 12:25:55;;;;;;;10.67;6.40;;;6.70;99.90;;;;;;5096712;28;20463;-78
2022/11/27 12:28:41;;;;;;;12.30;7.90;;;6.70;99.90;;;;;;5096462;28;20498;-78
2022/11/27 12:31:17;;;;;;;9.17;5.70;;;6.80;99.90;;;;;;5095982;28;20571;-77
2022/11/27 12:33:58;;;;;;;10.10;7.03;;;6.70;99.90;;;;;;5086972;28;20532;-77
2022/11/27 12:36:48;;;;;;;10.13;6.10;;;6.50;99.90;;;;;;5088076;28;20873;-78
2022/11/27 12:39:25;;;;;;;9.33;5.57;;;6.40;99.90;;;;;;5088918;28;20490;-77
2022/11/27 12:42:02;;;;;;;6.77;5.90;;;6.30;99.90;;;;;;5084065;28;20475;-78
2022/11/27 12:44:43;;;;;;;8.53;6.67;;;6.30;99.90;;;;;;5086231;28;21258;-78
2022/11/27 12:47:15;;;;;;;8.00;4.67;;;6.20;99.90;;;;;;5086266;28;20566;-77
2022/11/27 12:49:46;;;;;;;6.60;5.17;;;6.30;99.90;;;;;;5092586;28;20576;-78
2022/11/27 12:52:19;;;;;;;5.70;5.17;;;6.60;99.90;;;;;;5092343;28;20469;-77
2022/11/27 12:54:51;;;;;;;6.00;5.40;;;6.70;99.90;;;;;;5089152;28;20493;-78
2022/11/27 12:57:22;;;;;;;8.20;5.63;;;6.70;99.90;;;;;;5084080;28;20473;-77
2022/11/27 12:59:55;;;;;;;6.80;5.43;;;6.60;99.90;;;;;;5084348;28;20482;-77
2022/11/27 13:02:29;;;;;;;7.33;4.67;;;6.40;99.90;;;;;;5098107;28;20863;-77